Time;durP1;ratioP1;P1;durP2;ratioP2;P2;SDS_P1;SDS_P2;PMS_P1;PMS_P2;Temp;Humidity;BMP_temperature;BMP_pressure;BME280_temperature;BME280_humidity;BME280_pressure;Samples;Min_cycle;Max_cycle;Signal;HPM_P1;HPM_P2
2022/07/10 00:01:45;;;;;;;9.03;4.93;;;19.60;99.90;;;;;;7387355;19;20942;-81
2022/07/10 00:04:18;;;;;;;4.43;4.13;;;19.60;99.90;;;;;;7387806;19;20999;-81
2022/07/10 00:06:50;;;;;;;5.90;5.40;;;19.60;99.90;;;;;;7386062;19;20374;-81
2022/07/10 00:09:20;;;;;;;5.07;4.60;;;19.60;99.90;;;;;;7386909;19;20956;-81
2022/07/10 00:11:49;;;;;;;4.73;4.20;;;19.60;99.90;;;;;;7387888;19;20380;-81
2022/07/10 00:14:20;;;;;;;7.53;4.20;;;19.80;99.90;;;;;;7388986;19;20965;-80
2022/07/10 00:16:49;;;;;;;5.47;4.97;;;20.00;99.90;;;;;;7390660;19;20419;-80
2022/07/10 00:19:21;;;;;;;4.40;4.00;;;20.00;99.90;;;;;;7387516;19;20911;-81
2022/07/10 00:21:50;;;;;;;5.20;4.23;;;20.20;99.90;;;;;;7389070;19;20415;-82
2022/07/10 00:24:20;;;;;;;4.63;4.20;;;20.20;99.90;;;;;;7387664;19;20372;-81
2022/07/10 00:26:50;;;;;;;5.23;4.43;;;20.30;99.90;;;;;;7385626;19;20484;-82
2022/07/10 00:29:19;;;;;;;4.27;3.97;;;20.20;99.90;;;;;;7388939;19;20376;-81
2022/07/10 00:31:49;;;;;;;6.03;4.13;;;20.20;99.90;;;;;;7379653;19;20412;-81
2022/07/10 00:34:23;;;;;;;4.27;3.87;;;20.30;99.90;;;;;;7388698;19;20416;-81
2022/07/10 00:36:55;;;;;;;5.20;4.20;;;20.50;99.90;;;;;;7382341;19;20538;-81
2022/07/10 00:39:25;;;;;;;4.57;4.00;;;20.40;99.90;;;;;;7383568;19;21134;-81
2022/07/10 00:41:54;;;;;;;4.50;3.90;;;20.40;99.90;;;;;;7369986;19;20460;-81
2022/07/10 00:44:24;;;;;;;4.63;4.10;;;20.50;99.90;;;;;;7385182;19;20406;-81
2022/07/10 00:46:53;;;;;;;4.87;3.67;;;20.40;99.90;;;;;;7388551;19;20384;-81
2022/07/10 00:49:25;;;;;;;5.10;4.00;;;20.40;99.90;;;;;;7386507;19;20437;-81
2022/07/10 00:51:56;;;;;;;3.90;3.50;;;20.50;99.90;;;;;;7385150;19;20459;-81
2022/07/10 00:54:31;;;;;;;4.67;4.17;;;20.50;99.90;;;;;;7389574;19;20392;-81
2022/07/10 00:57:05;;;;;;;4.60;4.17;;;20.50;99.90;;;;;;7384249;19;20540;-81
2022/07/10 00:59:35;;;;;;;5.03;4.03;;;20.40;99.90;;;;;;7387000;19;20959;-80
2022/07/10 01:02:06;;;;;;;4.30;3.90;;;20.30;99.90;;;;;;7385338;19;20411;-80
2022/07/10 01:04:40;;;;;;;4.80;4.10;;;20.30;99.90;;;;;;7383534;19;20408;-80
2022/07/10 01:07:15;;;;;;;4.10;3.80;;;20.20;99.90;;;;;;7387358;19;20367;-81
2022/07/10 01:09:45;;;;;;;4.83;3.87;;;20.00;99.90;;;;;;7388686;19;20401;-80
2022/07/10 01:12:15;;;;;;;4.40;3.90;;;19.90;99.90;;;;;;7386921;19;20407;-80
2022/07/10 01:14:45;;;;;;;4.00;3.70;;;19.80;99.90;;;;;;7387126;19;20737;-81
2022/07/10 01:17:16;;;;;;;4.27;3.90;;;19.60;99.90;;;;;;7383936;19;20383;-80
2022/07/10 01:19:51;;;;;;;5.70;4.70;;;19.50;99.90;;;;;;7385608;19;20423;-81
2022/07/10 01:22:23;;;;;;;4.30;3.93;;;19.30;99.90;;;;;;7386015;19;20438;-80
2022/07/10 01:24:52;;;;;;;8.43;4.70;;;19.20;99.90;;;;;;7388689;19;20415;-80
2022/07/10 01:27:21;;;;;;;3.93;3.63;;;19.00;99.90;;;;;;7378597;19;20413;-80
2022/07/10 01:29:55;;;;;;;4.30;3.90;;;19.00;99.90;;;;;;7386820;19;20384;-80
2022/07/10 01:32:28;;;;;;;5.70;4.90;;;18.80;99.90;;;;;;7384531;19;20379;-80
2022/07/10 01:34:57;;;;;;;4.80;4.40;;;18.70;99.90;;;;;;7387199;19;20392;-80
2022/07/10 01:37:29;;;;;;;5.00;4.20;;;18.70;99.90;;;;;;7385088;19;20416;-80
2022/07/10 01:40:02;;;;;;;4.50;4.10;;;18.60;99.90;;;;;;7383209;19;20439;-80
2022/07/10 01:42:31;;;;;;;4.00;3.70;;;18.60;99.90;;;;;;7383159;19;20433;-80
2022/07/10 01:45:00;;;;;;;5.00;4.30;;;18.50;99.90;;;;;;7385682;19;20421;-80
2022/07/10 01:47:30;;;;;;;3.60;3.30;;;18.40;99.90;;;;;;7387605;19;20412;-80
2022/07/10 01:49:59;;;;;;;4.23;3.93;;;18.30;99.90;;;;;;7384552;19;20416;-80
2022/07/10 01:52:31;;;;;;;4.33;3.93;;;18.30;99.90;;;;;;7385208;19;20435;-80
2022/07/10 01:55:03;;;;;;;4.37;3.93;;;18.30;99.90;;;;;;7385075;19;20375;-80
2022/07/10 01:57:35;;;;;;;4.50;4.10;;;18.40;99.90;;;;;;7379143;19;20437;-80
2022/07/10 02:00:05;;;;;;;5.07;4.57;;;18.40;99.90;;;;;;7384752;19;20391;-78
2022/07/10 02:04:40;;;;;;;5.00;4.50;;;18.50;99.90;;;;;;7385314;19;20376;-78
2022/07/10 02:05:29;;;;;;;7.93;5.13;;;18.40;99.90;;;;;;7385102;19;20489;-78
2022/07/10 02:08:03;;;;;;;5.83;5.07;;;18.30;99.90;;;;;;7384935;19;20946;-78
2022/07/10 02:10:32;;;;;;;6.10;5.50;;;18.60;99.90;;;;;;7385472;19;20415;-78
2022/07/10 02:13:02;;;;;;;5.60;5.10;;;18.80;99.90;;;;;;7383972;19;20719;-78
2022/07/10 02:15:34;;;;;;;6.27;5.67;;;18.90;99.90;;;;;;7382476;19;20997;-78
2022/07/10 02:18:03;;;;;;;7.17;6.47;;;19.10;99.90;;;;;;7385037;19;20873;-78
2022/07/10 02:20:34;;;;;;;6.60;5.90;;;19.10;99.90;;;;;;7386256;19;20872;-78
2022/07/10 02:23:07;;;;;;;8.13;6.17;;;19.20;99.90;;;;;;7386528;19;20380;-78
2022/07/10 02:25:38;;;;;;;7.83;6.97;;;19.30;99.90;;;;;;7383641;19;20416;-78
2022/07/10 02:28:11;;;;;;;7.63;6.87;;;19.30;99.90;;;;;;7380817;19;20765;-78
2022/07/10 02:30:40;;;;;;;10.00;7.60;;;19.40;99.90;;;;;;7390529;19;20496;-81
2022/07/10 02:33:10;;;;;;;8.93;8.13;;;19.50;99.90;;;;;;7392002;19;20432;-80
2022/07/10 02:35:39;;;;;;;10.73;7.50;;;19.50;99.90;;;;;;7391272;19;20407;-80
2022/07/10 02:38:13;;;;;;;9.43;7.80;;;19.50;99.90;;;;;;7392902;19;20396;-80
2022/07/10 02:40:44;;;;;;;12.90;9.30;;;19.50;99.90;;;;;;7389418;19;20889;-80
2022/07/10 02:43:13;;;;;;;10.07;9.07;;;19.50;99.90;;;;;;7391502;19;20433;-80
2022/07/10 02:45:43;;;;;;;10.90;9.60;;;19.50;99.90;;;;;;7391938;19;20419;-80
2022/07/10 02:48:14;;;;;;;10.83;8.87;;;19.60;99.90;;;;;;7390113;19;20408;-80
2022/07/10 02:50:46;;;;;;;9.53;8.57;;;19.70;99.90;;;;;;7391643;19;20417;-80
2022/07/10 02:53:18;;;;;;;11.67;9.37;;;19.80;99.90;;;;;;7393297;19;20439;-80
2022/07/10 02:55:48;;;;;;;10.13;9.10;;;19.80;99.90;;;;;;7388800;19;20381;-80
2022/07/10 02:58:22;;;;;;;10.27;9.27;;;19.80;99.90;;;;;;7386190;19;20454;-80
2022/07/10 03:00:51;;;;;;;9.63;8.73;;;19.90;99.90;;;;;;7392000;19;20906;-80
2022/07/10 03:03:25;;;;;;;9.80;8.80;;;19.80;99.90;;;;;;7389128;19;20773;-80
2022/07/10 03:05:55;;;;;;;10.27;8.97;;;19.70;99.90;;;;;;7390444;19;20753;-80
2022/07/10 03:08:27;;;;;;;9.03;8.07;;;19.70;99.90;;;;;;7391075;19;20408;-80
2022/07/10 03:10:59;;;;;;;10.20;9.13;;;19.90;99.90;;;;;;7389934;19;20922;-81
2022/07/10 03:13:28;;;;;;;9.20;8.20;;;19.90;99.90;;;;;;7391623;19;20387;-80
2022/07/10 03:16:00;;;;;;;9.03;8.13;;;19.80;99.90;;;;;;7390815;19;20395;-80
2022/07/10 03:18:30;;;;;;;8.93;8.03;;;19.70;99.90;;;;;;7390412;19;20414;-81
2022/07/10 03:20:59;;;;;;;11.23;8.63;;;19.80;99.90;;;;;;7388798;19;20423;-80
2022/07/10 03:23:33;;;;;;;10.27;8.53;;;19.80;99.90;;;;;;7391460;19;20491;-80
2022/07/10 03:26:03;;;;;;;9.70;7.97;;;19.80;99.90;;;;;;7388371;19;20754;-80
2022/07/10 03:28:33;;;;;;;9.43;8.40;;;19.70;99.90;;;;;;7390755;19;20368;-80
2022/07/10 03:31:05;;;;;;;9.63;7.70;;;19.80;99.90;;;;;;7388564;19;20416;-81
2022/07/10 03:33:34;;;;;;;8.40;7.33;;;19.80;99.90;;;;;;7389399;19;20409;-80
2022/07/10 03:36:03;;;;;;;7.90;6.80;;;19.90;99.90;;;;;;7386874;19;20942;-81
2022/07/10 03:38:35;;;;;;;9.70;8.50;;;19.90;99.90;;;;;;7389412;19;20431;-81
2022/07/10 03:41:05;;;;;;;8.87;7.93;;;20.00;99.70;;;;;;7387918;19;21002;-81
2022/07/10 03:43:34;;;;;;;10.10;8.13;;;19.80;99.90;;;;;;7388465;19;20863;-81
2022/07/10 03:46:06;;;;;;;9.70;7.87;;;19.70;99.90;;;;;;7390435;19;20372;-81
2022/07/10 03:48:36;;;;;;;9.10;8.20;;;19.70;99.90;;;;;;7390103;19;20447;-81
2022/07/10 03:51:07;;;;;;;11.57;6.90;;;19.70;99.90;;;;;;7388038;19;20522;-81
2022/07/10 03:53:39;;;;;;;7.83;7.13;;;19.70;99.90;;;;;;7392354;19;20455;-81
2022/07/10 03:57:53;;;;;;;8.63;7.43;;;19.80;99.90;;;;;;7384515;19;20926;-81
2022/07/10 03:58:59;;;;;;;8.33;7.53;;;19.80;99.90;;;;;;7390792;19;20412;-81
2022/07/10 04:01:28;;;;;;;9.17;6.63;;;19.80;99.90;;;;;;7391198;19;20405;-80
2022/07/10 04:03:57;;;;;;;9.20;7.40;;;19.80;99.90;;;;;;7384960;19;20406;-80
2022/07/10 04:06:27;;;;;;;11.37;8.40;;;19.90;99.90;;;;;;7389534;19;20758;-80
2022/07/10 04:09:02;;;;;;;8.73;7.37;;;19.90;99.90;;;;;;7391297;19;20767;-80
2022/07/10 04:11:31;;;;;;;9.80;7.67;;;19.90;99.80;;;;;;7385178;19;20395;-81
2022/07/10 04:14:03;;;;;;;8.60;7.07;;;19.80;99.90;;;;;;7387917;19;20404;-80
2022/07/10 04:16:34;;;;;;;9.10;7.80;;;19.70;99.90;;;;;;7391122;19;20426;-80
2022/07/10 04:19:04;;;;;;;8.77;7.57;;;19.80;99.90;;;;;;7389686;19;20443;-80
2022/07/10 04:21:38;;;;;;;9.80;7.90;;;19.80;99.90;;;;;;7387635;19;20367;-80
2022/07/10 04:24:12;;;;;;;9.30;7.20;;;19.80;99.90;;;;;;7388417;19;20427;-80
2022/07/10 04:26:42;;;;;;;8.40;7.57;;;19.90;99.90;;;;;;7384871;19;20830;-80
2022/07/10 04:29:11;;;;;;;9.40;7.10;;;19.90;99.90;;;;;;7385646;19;20372;-80
2022/07/10 04:31:43;;;;;;;6.70;6.10;;;19.90;99.90;;;;;;7386831;19;20454;-80
2022/07/10 04:34:12;;;;;;;10.53;7.80;;;19.80;99.90;;;;;;7388439;19;20798;-80
2022/07/10 04:36:42;;;;;;;8.93;7.60;;;19.70;99.90;;;;;;7390180;19;20402;-80
2022/07/10 04:39:14;;;;;;;8.40;7.30;;;19.60;99.90;;;;;;7387322;19;20373;-80
2022/07/10 04:41:43;;;;;;;7.30;6.13;;;19.50;99.90;;;;;;7387903;19;20379;-81
2022/07/10 04:44:13;;;;;;;8.60;7.70;;;19.70;99.90;;;;;;7388999;19;20376;-80
2022/07/10 04:46:42;;;;;;;7.93;7.13;;;19.80;99.90;;;;;;7388141;19;20416;-80
2022/07/10 04:49:12;;;;;;;7.73;6.27;;;19.60;99.90;;;;;;7386278;19;20422;-81
2022/07/10 04:51:44;;;;;;;5.67;5.17;;;19.60;99.90;;;;;;7386038;19;20388;-81
2022/07/10 04:54:16;;;;;;;6.83;6.20;;;19.60;99.60;;;;;;7388846;19;20372;-80
2022/07/10 04:56:46;;;;;;;10.13;6.07;;;19.60;99.90;;;;;;7383058;19;20463;-81
2022/07/10 04:59:15;;;;;;;8.57;6.30;;;19.70;99.90;;;;;;7387214;19;20413;-81
2022/07/10 05:01:50;;;;;;;5.53;5.00;;;19.80;99.90;;;;;;7389022;19;20918;-80
2022/07/10 05:04:19;;;;;;;7.33;5.93;;;19.70;99.30;;;;;;7385688;19;20376;-80
2022/07/10 05:06:49;;;;;;;6.80;6.13;;;19.70;98.80;;;;;;7387065;19;20463;-81
2022/07/10 05:09:21;;;;;;;6.80;6.03;;;19.70;99.20;;;;;;7386377;19;20448;-80
2022/07/10 05:11:51;;;;;;;8.40;5.53;;;19.90;98.80;;;;;;7385183;19;20419;-80
2022/07/10 05:14:21;;;;;;;6.60;5.47;;;19.80;98.60;;;;;;7384525;19;20482;-81
2022/07/10 05:16:53;;;;;;;5.57;4.90;;;19.70;98.60;;;;;;7387508;19;20415;-80
2022/07/10 05:19:22;;;;;;;6.63;5.10;;;19.60;98.60;;;;;;7386532;19;20412;-80
2022/07/10 05:21:52;;;;;;;5.03;4.20;;;19.60;97.80;;;;;;7376709;19;20540;-80
2022/07/10 05:24:24;;;;;;;9.60;4.70;;;19.50;98.20;;;;;;7386505;19;20450;-81
2022/07/10 05:26:53;;;;;;;6.30;4.43;;;19.60;97.90;;;;;;7384887;19;20379;-80
2022/07/10 05:29:23;;;;;;;7.13;3.63;;;19.50;97.10;;;;;;7383946;19;20400;-80
2022/07/10 05:31:55;;;;;;;4.90;3.73;;;19.40;97.50;;;;;;7381799;19;20415;-80
2022/07/10 05:34:25;;;;;;;6.47;4.10;;;19.60;97.60;;;;;;7385291;19;20375;-80
2022/07/10 05:36:57;;;;;;;4.07;3.70;;;19.40;97.50;;;;;;7386662;19;20435;-80
2022/07/10 05:39:32;;;;;;;5.23;3.87;;;19.60;96.10;;;;;;7384323;19;21034;-80
2022/07/10 05:42:03;;;;;;;5.77;3.70;;;19.80;95.30;;;;;;7383528;19;20387;-80
2022/07/10 05:44:35;;;;;;;5.40;4.10;;;20.10;94.60;;;;;;7385525;19;20368;-81
2022/07/10 05:47:05;;;;;;;3.40;2.93;;;20.30;93.60;;;;;;7385055;19;20428;-80
2022/07/10 05:49:34;;;;;;;5.93;2.77;;;20.50;91.50;;;;;;7385491;19;20483;-81
2022/07/10 05:52:09;;;;;;;7.67;2.90;;;20.60;90.10;;;;;;7386479;19;20379;-81
2022/07/10 05:54:43;;;;;;;4.33;3.63;;;20.70;88.20;;;;;;7386251;19;20412;-81
2022/07/10 05:57:13;;;;;;;4.33;2.77;;;20.60;87.70;;;;;;7381508;19;20519;-81
2022/07/10 05:59:46;;;;;;;4.40;2.60;;;20.60;87.80;;;;;;7383897;19;20522;-81
2022/07/10 06:02:16;;;;;;;3.60;2.60;;;20.70;85.50;;;;;;7383677;19;20450;-81
2022/07/10 06:04:47;;;;;;;4.10;2.73;;;20.60;85.50;;;;;;7387270;19;20415;-81
2022/07/10 06:07:17;;;;;;;3.17;2.20;;;20.20;83.80;;;;;;7383266;19;21173;-81
2022/07/10 06:09:49;;;;;;;5.07;2.10;;;20.30;84.70;;;;;;7387156;19;20993;-80
2022/07/10 06:12:18;;;;;;;2.50;2.30;;;20.40;82.70;;;;;;7382970;19;20416;-80
2022/07/10 06:14:50;;;;;;;2.80;2.07;;;20.20;82.50;;;;;;7385548;19;20396;-81
2022/07/10 06:17:20;;;;;;;2.20;2.00;;;20.30;83.60;;;;;;7383518;19;20416;-80
2022/07/10 06:19:50;;;;;;;8.13;3.00;;;20.50;83.90;;;;;;7381390;19;20494;-81
2022/07/10 06:22:35;;;;;;;3.00;2.20;;;20.60;82.40;;;;;;7376003;19;20781;-81
2022/07/10 06:25:09;;;;;;;4.53;2.57;;;20.60;81.60;;;;;;7384398;19;20404;-81
2022/07/10 06:27:39;;;;;;;2.70;2.50;;;20.20;82.50;;;;;;7381681;19;20371;-80
2022/07/10 06:30:09;;;;;;;2.70;2.50;;;20.10;82.50;;;;;;7385301;19;20419;-80
2022/07/10 06:32:41;;;;;;;3.03;2.40;;;20.20;81.50;;;;;;7380767;19;20921;-81
2022/07/10 06:35:11;;;;;;;4.57;2.40;;;20.20;82.70;;;;;;7385101;19;20484;-81
2022/07/10 06:37:40;;;;;;;2.57;2.37;;;20.20;83.10;;;;;;7384269;19;20488;-81
2022/07/10 06:40:16;;;;;;;2.90;2.37;;;20.50;81.70;;;;;;7385476;19;20404;-81
2022/07/10 06:42:46;;;;;;;2.23;2.03;;;20.70;79.30;;;;;;7382756;19;20473;-81
2022/07/10 06:45:22;;;;;;;2.07;1.87;;;20.80;79.60;;;;;;7383690;19;20367;-81
2022/07/10 06:47:59;;;;;;;5.33;2.20;;;21.00;78.80;;;;;;7378554;19;20473;-80
2022/07/10 06:50:30;;;;;;;3.90;1.90;;;21.00;75.10;;;;;;7385436;19;20757;-81
2022/07/10 06:53:02;;;;;;;3.40;2.60;;;20.80;75.40;;;;;;7384105;19;20395;-80
2022/07/10 06:55:35;;;;;;;1.77;1.63;;;20.70;75.20;;;;;;7383683;19;20404;-80
2022/07/10 06:58:04;;;;;;;2.70;2.03;;;20.80;76.80;;;;;;7380365;19;20477;-80
2022/07/10 07:00:34;;;;;;;7.87;2.37;;;20.90;75.90;;;;;;7386380;19;20950;-80
2022/07/10 07:03:06;;;;;;;4.17;2.20;;;21.00;74.10;;;;;;7384395;19;20408;-80
2022/07/10 07:05:35;;;;;;;4.60;2.00;;;21.10;73.80;;;;;;7384164;19;20415;-80
2022/07/10 07:08:05;;;;;;;2.63;1.80;;;21.30;72.40;;;;;;7382523;19;20420;-80
2022/07/10 07:10:37;;;;;;;4.63;1.90;;;21.30;68.80;;;;;;7383545;19;20427;-80
2022/07/10 07:13:09;;;;;;;2.33;2.13;;;20.70;68.10;;;;;;7382164;19;20423;-80
2022/07/10 07:15:42;;;;;;;3.47;2.10;;;20.60;70.30;;;;;;7383788;19;20454;-80
2022/07/10 07:18:16;;;;;;;4.03;1.50;;;20.60;72.60;;;;;;7391012;19;20360;-81
2022/07/10 07:23:29;;;;;;;3.97;2.13;;;20.90;71.50;;;;;;7392763;19;20367;-81
2022/07/10 07:26:01;;;;;;;4.23;1.87;;;20.90;71.00;;;;;;7383514;19;20456;-81
2022/07/10 07:28:31;;;;;;;2.47;2.27;;;21.00;70.30;;;;;;7385001;19;20803;-80
2022/07/10 07:31:01;;;;;;;2.50;2.17;;;21.00;70.60;;;;;;7389910;19;20372;-81
2022/07/10 07:33:30;;;;;;;5.60;2.17;;;21.00;71.30;;;;;;7388007;19;20833;-81
2022/07/10 07:36:02;;;;;;;2.63;1.73;;;21.10;70.80;;;;;;7387781;19;20372;-81
2022/07/10 07:38:31;;;;;;;2.50;1.57;;;20.90;70.10;;;;;;7388589;19;20513;-81
2022/07/10 07:41:03;;;;;;;2.90;1.77;;;21.00;70.50;;;;;;7390071;19;20408;-81
2022/07/10 07:43:35;;;;;;;2.63;1.90;;;21.20;69.50;;;;;;7390131;19;20446;-80
2022/07/10 07:46:05;;;;;;;3.60;1.80;;;21.30;67.80;;;;;;7390838;19;20416;-81
2022/07/10 07:48:35;;;;;;;3.87;1.57;;;21.50;66.30;;;;;;7390197;19;20431;-82
2022/07/10 07:51:04;;;;;;;1.70;1.60;;;21.60;66.40;;;;;;7386956;19;20409;-81
2022/07/10 07:53:33;;;;;;;3.40;1.80;;;21.50;65.50;;;;;;7387065;19;20758;-81
2022/07/10 07:56:06;;;;;;;2.93;1.73;;;21.70;64.30;;;;;;7389574;19;20451;-81
2022/07/10 07:58:38;;;;;;;2.60;1.37;;;21.40;64.20;;;;;;7385233;19;20393;-81
2022/07/10 08:01:07;;;;;;;3.80;1.90;;;21.50;64.20;;;;;;7387865;19;20791;-81
2022/07/10 08:03:39;;;;;;;5.20;1.97;;;21.70;62.50;;;;;;7387788;19;20421;-80
2022/07/10 08:06:12;;;;;;;2.57;2.17;;;21.90;61.60;;;;;;7386654;19;20383;-81
2022/07/10 08:08:41;;;;;;;3.40;1.67;;;22.00;61.80;;;;;;7389317;19;20483;-81
2022/07/10 08:11:15;;;;;;;4.77;1.53;;;21.90;61.60;;;;;;7385114;19;20416;-80
2022/07/10 08:13:45;;;;;;;2.60;1.77;;;21.90;62.40;;;;;;7386784;19;20412;-81
2022/07/10 08:16:18;;;;;;;2.80;1.50;;;22.10;61.20;;;;;;7391130;19;20972;-82
2022/07/10 08:18:48;;;;;;;2.70;1.77;;;22.30;59.40;;;;;;7388637;19;20404;-81
2022/07/10 08:21:17;;;;;;;5.40;1.60;;;22.60;59.10;;;;;;7385702;19;20408;-80
2022/07/10 08:23:46;;;;;;;4.17;1.87;;;22.60;58.70;;;;;;7387718;19;20419;-81
2022/07/10 08:26:18;;;;;;;3.63;1.70;;;22.50;60.00;;;;;;7385808;19;20769;-80
2022/07/10 08:28:50;;;;;;;2.70;1.77;;;22.60;58.70;;;;;;7385405;19;20386;-80
2022/07/10 08:31:20;;;;;;;2.50;1.70;;;22.70;57.80;;;;;;7389536;19;20432;-80
2022/07/10 08:33:51;;;;;;;1.97;1.30;;;22.80;57.50;;;;;;7387546;19;20431;-80
2022/07/10 08:36:22;;;;;;;3.20;1.70;;;22.90;55.90;;;;;;7387954;19;20416;-81
2022/07/10 08:38:55;;;;;;;3.80;1.37;;;22.80;56.10;;;;;;7384502;19;20416;-81
2022/07/10 08:41:28;;;;;;;4.43;2.00;;;22.70;56.30;;;;;;7385610;19;20480;-81
2022/07/10 08:43:58;;;;;;;5.07;1.80;;;22.40;57.00;;;;;;7387631;19;20959;-80
2022/07/10 08:46:28;;;;;;;3.03;1.50;;;22.30;57.00;;;;;;7387019;19;20940;-81
2022/07/10 08:49:02;;;;;;;4.80;1.70;;;22.30;58.10;;;;;;7384158;19;20505;-80
2022/07/10 08:51:39;;;;;;;2.20;1.80;;;22.60;57.50;;;;;;7387973;19;20371;-81
2022/07/10 08:54:10;;;;;;;1.53;1.43;;;22.70;56.10;;;;;;7385503;19;20412;-81
2022/07/10 08:56:43;;;;;;;4.30;1.60;;;22.90;55.50;;;;;;7386078;19;20424;-81
2022/07/10 08:59:16;;;;;;;6.33;1.50;;;23.10;55.70;;;;;;7384776;19;20368;-82
2022/07/10 09:01:46;;;;;;;3.70;2.00;;;23.50;54.40;;;;;;7387274;19;20384;-81
2022/07/10 09:04:20;;;;;;;1.87;1.40;;;23.90;53.30;;;;;;7388835;19;20380;-81
2022/07/10 09:06:53;;;;;;;3.50;1.30;;;24.00;52.20;;;;;;7389594;19;20925;-81
2022/07/10 09:09:23;;;;;;;4.10;1.90;;;23.90;52.70;;;;;;7386801;19;20439;-82
2022/07/10 09:12:01;;;;;;;2.00;1.30;;;24.10;51.70;;;;;;7385652;19;20401;-81
2022/07/10 09:14:32;;;;;;;2.70;1.30;;;24.10;51.60;;;;;;7382597;19;20407;-81
2022/07/10 09:17:01;;;;;;;2.03;1.83;;;23.80;51.50;;;;;;7386430;19;20404;-82
2022/07/10 09:19:31;;;;;;;2.83;1.43;;;23.60;52.00;;;;;;7385408;19;20412;-81
2022/07/10 09:22:08;;;;;;;2.20;1.30;;;23.80;51.70;;;;;;7388687;19;20773;-81
2022/07/10 09:24:39;;;;;;;1.87;1.27;;;23.80;51.80;;;;;;7387866;19;20463;-81
2022/07/10 09:27:14;;;;;;;5.57;1.73;;;23.90;51.00;;;;;;7382671;19;20961;-81
2022/07/10 09:29:54;;;;;;;2.13;1.40;;;24.00;50.70;;;;;;7383100;19;20424;-81
2022/07/10 09:32:24;;;;;;;3.10;1.83;;;23.70;51.40;;;;;;7387723;19;21725;-81
2022/07/10 09:36:04;;;;;;;2.13;1.10;;;23.70;51.50;;;;;;7382934;19;20388;-82
2022/07/10 09:37:46;;;;;;;3.17;1.23;;;23.90;51.80;;;;;;7386198;19;20408;-82
2022/07/10 09:40:16;;;;;;;4.30;1.40;;;24.60;49.60;;;;;;7383037;19;20372;-81
2022/07/10 09:42:48;;;;;;;2.93;2.03;;;24.70;48.00;;;;;;7386625;19;20416;-81
2022/07/10 09:45:20;;;;;;;1.40;1.10;;;24.50;48.90;;;;;;7384359;19;20460;-81
2022/07/10 09:47:58;;;;;;;3.07;1.50;;;24.20;48.80;;;;;;7379974;19;20391;-80
2022/07/10 09:50:29;;;;;;;4.93;1.87;;;23.60;48.80;;;;;;7385248;19;20416;-81
2022/07/10 09:53:02;;;;;;;1.73;1.47;;;23.60;50.60;;;;;;7385074;19;20380;-81
2022/07/10 09:55:33;;;;;;;2.80;1.47;;;24.40;50.10;;;;;;7382493;19;20426;-81
2022/07/10 09:58:06;;;;;;;2.07;1.07;;;25.60;47.40;;;;;;7385198;19;20447;-81
2022/07/10 10:00:40;;;;;;;1.60;1.20;;;26.80;45.10;;;;;;7384791;19;20733;-79
2022/07/10 10:03:14;;;;;;;5.20;1.33;;;27.10;43.90;;;;;;7387996;19;20419;-81
2022/07/10 10:05:46;;;;;;;2.10;1.50;;;27.10;43.60;;;;;;7387902;19;20429;-79
2022/07/10 10:08:20;;;;;;;3.30;1.40;;;27.30;43.50;;;;;;7382658;19;20540;-80
2022/07/10 10:10:51;;;;;;;2.83;1.30;;;27.00;43.60;;;;;;7383539;19;20416;-80
2022/07/10 10:13:27;;;;;;;2.90;1.20;;;26.90;43.30;;;;;;7384309;19;20415;-81
2022/07/10 10:15:57;;;;;;;1.83;1.07;;;26.80;43.00;;;;;;7379548;19;20404;-79
2022/07/10 10:18:29;;;;;;;2.77;1.43;;;27.10;42.30;;;;;;7384799;19;20407;-80
2022/07/10 10:20:59;;;;;;;1.50;1.10;;;26.90;42.50;;;;;;7380953;19;20408;-81
2022/07/10 10:23:32;;;;;;;2.60;1.53;;;26.80;42.90;;;;;;7384363;19;20419;-80
2022/07/10 10:26:01;;;;;;;3.30;1.33;;;26.80;43.10;;;;;;7381745;19;20364;-80
2022/07/10 10:28:36;;;;;;;2.00;1.27;;;27.80;42.60;;;;;;7376820;19;20409;-82
2022/07/10 10:31:06;;;;;;;1.50;1.07;;;29.60;39.60;;;;;;7382855;19;20412;-82
2022/07/10 10:33:51;;;;;;;3.03;1.17;;;30.80;37.70;;;;;;7384610;19;20383;-80
2022/07/10 10:36:48;;;;;;;2.17;1.53;;;32.30;34.90;;;;;;7384456;19;20431;-80
2022/07/10 10:39:21;;;;;;;3.23;1.47;;;33.30;33.80;;;;;;7380199;19;20510;-80
2022/07/10 10:41:54;;;;;;;4.03;1.40;;;34.30;31.80;;;;;;7382534;19;20409;-81
2022/07/10 10:44:31;;;;;;;2.43;1.30;;;35.00;30.50;;;;;;7380305;19;20404;-80
2022/07/10 10:47:09;;;;;;;3.73;1.17;;;35.30;30.20;;;;;;7384328;19;20777;-81
2022/07/10 10:49:53;;;;;;;2.03;1.83;;;35.60;29.30;;;;;;7386539;19;20416;-79
2022/07/10 10:52:24;;;;;;;2.63;1.10;;;35.80;28.40;;;;;;7391485;19;20407;-80
2022/07/10 10:55:07;;;;;;;2.60;1.03;;;36.40;28.50;;;;;;7387529;19;20411;-80
2022/07/10 10:57:44;;;;;;;1.30;1.00;;;36.20;27.80;;;;;;7389250;19;20466;-80
2022/07/10 11:00:37;;;;;;;2.20;1.37;;;35.10;28.60;;;;;;7388525;19;20494;-80
2022/07/10 11:03:16;;;;;;;2.53;1.50;;;34.00;29.70;;;;;;7389768;19;20404;-80
2022/07/10 11:05:47;;;;;;;1.60;1.10;;;31.70;31.80;;;;;;7389493;19;20945;-80
2022/07/10 11:08:37;;;;;;;3.40;1.40;;;30.90;34.00;;;;;;7391902;19;20400;-79
2022/07/10 11:11:37;;;;;;;1.97;1.43;;;31.50;33.60;;;;;;7390817;19;20376;-79
2022/07/10 11:14:07;;;;;;;3.30;1.57;;;30.90;33.60;;;;;;7390441;19;20786;-79
2022/07/10 11:16:49;;;;;;;2.00;1.20;;;31.70;33.30;;;;;;7388910;19;21028;-80
2022/07/10 11:19:27;;;;;;;4.53;1.40;;;33.30;31.40;;;;;;7389787;19;20386;-81
2022/07/10 11:22:25;;;;;;;2.47;1.10;;;35.10;29.40;;;;;;7387444;19;20458;-81
2022/07/10 11:25:06;;;;;;;2.33;1.10;;;35.50;28.10;;;;;;7389973;19;20404;-80
2022/07/10 11:28:06;;;;;;;1.43;0.90;;;35.60;28.20;;;;;;7388760;19;20442;-81
2022/07/10 11:30:46;;;;;;;2.47;1.07;;;36.00;27.40;;;;;;7389899;19;20375;-79
2022/07/10 11:33:20;;;;;;;2.30;0.97;;;35.80;27.30;;;;;;7386915;19;20938;-80
2022/07/10 11:35:51;;;;;;;1.93;0.97;;;36.00;27.30;;;;;;7390625;19;20810;-79
2022/07/10 11:38:24;;;;;;;1.30;1.20;;;35.10;27.80;;;;;;7387899;19;20410;-81
2022/07/10 11:40:58;;;;;;;1.17;0.83;;;34.10;29.10;;;;;;7390238;19;20467;-82
2022/07/10 11:43:33;;;;;;;3.27;1.07;;;32.70;29.90;;;;;;7389777;19;20475;-81
2022/07/10 11:46:03;;;;;;;5.87;1.43;;;32.20;31.00;;;;;;7391561;19;20408;-81
2022/07/10 11:48:42;;;;;;;3.00;1.03;;;31.40;31.00;;;;;;7390667;19;20431;-79
2022/07/10 11:51:23;;;;;;;2.90;1.23;;;29.80;32.90;;;;;;7388200;19;20805;-79
2022/07/10 11:53:57;;;;;;;3.00;1.20;;;29.40;34.00;;;;;;7388656;19;20832;-79
2022/07/10 11:56:27;;;;;;;2.90;1.90;;;28.80;35.00;;;;;;7391110;19;20780;-80
2022/07/10 11:58:57;;;;;;;2.27;1.07;;;28.10;36.00;;;;;;7385356;19;21164;-79
2022/07/10 12:01:28;;;;;;;1.77;0.90;;;28.40;35.80;;;;;;7389234;19;20948;-81
2022/07/10 12:04:04;;;;;;;3.53;1.10;;;30.60;34.20;;;;;;7392920;19;20436;-81
2022/07/10 12:06:35;;;;;;;2.30;0.80;;;32.40;30.50;;;;;;7391290;19;20781;-81
2022/07/10 12:09:06;;;;;;;2.83;1.10;;;33.00;29.80;;;;;;7388997;19;20372;-81
2022/07/10 12:11:38;;;;;;;2.17;0.90;;;32.80;30.00;;;;;;7389307;19;20412;-80
2022/07/10 12:14:17;;;;;;;1.40;0.90;;;34.00;29.00;;;;;;7387784;19;20420;-79
2022/07/10 12:16:51;;;;;;;2.47;1.10;;;34.30;28.30;;;;;;7389664;19;20375;-79
2022/07/10 12:19:27;;;;;;;1.70;1.00;;;34.30;28.90;;;;;;7388779;19;20408;-80
2022/07/10 12:22:01;;;;;;;2.37;1.07;;;35.10;27.50;;;;;;7386560;19;20412;-80
2022/07/10 12:24:31;;;;;;;1.50;0.90;;;34.80;27.10;;;;;;7388327;19;20848;-80
2022/07/10 12:27:01;;;;;;;1.50;0.80;;;35.10;27.40;;;;;;7387342;19;20438;-80
2022/07/10 12:29:31;;;;;;;1.43;0.70;;;35.90;26.30;;;;;;7388516;19;20851;-80
2022/07/10 12:32:02;;;;;;;3.30;1.23;;;36.80;25.40;;;;;;7386866;19;20924;-82
2022/07/10 12:34:46;;;;;;;1.40;0.90;;;37.50;25.20;;;;;;7389281;19;20423;-82
2022/07/10 12:37:16;;;;;;;2.03;1.00;;;38.10;24.60;;;;;;7387259;19;21542;-80
2022/07/10 12:39:50;;;;;;;2.33;1.00;;;38.80;23.80;;;;;;7389049;19;20766;-80
2022/07/10 12:42:27;;;;;;;0.80;0.70;;;38.90;23.10;;;;;;7389403;19;20419;-80
2022/07/10 12:45:11;;;;;;;2.07;0.97;;;38.90;23.30;;;;;;7384234;19;20399;-79
2022/07/10 12:47:47;;;;;;;1.80;0.83;;;38.90;23.20;;;;;;7388492;19;20403;-82
2022/07/10 12:50:20;;;;;;;1.20;0.77;;;38.30;23.80;;;;;;7388978;19;20450;-80
2022/07/10 12:52:50;;;;;;;2.77;0.60;;;36.40;24.90;;;;;;7384965;19;20416;-79
2022/07/10 12:55:21;;;;;;;1.13;0.60;;;35.30;26.50;;;;;;7387149;19;20990;-80
2022/07/10 12:57:52;;;;;;;1.80;0.90;;;36.00;25.90;;;;;;7387994;19;21012;-82
2022/07/10 13:00:23;;;;;;;1.20;0.80;;;37.20;25.10;;;;;;7385689;19;20795;-82
2022/07/10 13:03:00;;;;;;;2.30;1.00;;;37.90;24.10;;;;;;7390228;19;20446;-80
2022/07/10 13:05:36;;;;;;;1.87;0.80;;;37.40;24.00;;;;;;7388076;19;20458;-82
2022/07/10 13:08:12;;;;;;;1.10;0.77;;;37.20;24.50;;;;;;7389830;19;20384;-82
2022/07/10 13:10:42;;;;;;;1.70;0.60;;;37.90;23.80;;;;;;7389004;19;20403;-82
2022/07/10 13:13:12;;;;;;;2.30;0.70;;;38.20;23.30;;;;;;7384130;19;20416;-79
2022/07/10 13:15:45;;;;;;;1.00;0.60;;;38.70;23.40;;;;;;7381197;19;20373;-80